Scott City, MO

9:24 PM CDT on September 04, 2015 (GMT -0500)
Cape Girardeau Regional | | Change Station
CLOSE
Current Station
Airport
Location: Cape Girardeau,
Elevation: 341 ft
Nearby Weather Stations

Elev 341 ft 37.23 °N, 89.57 °W | Updated 31 minutes ago

Clear
Clear
76 °F
Feels Like 76 °F
N
4
Wind Variable Wind from East

Today
High -- | Low -- °F
--% Chance of Precip.
Yesterday
High -- | Low -- °F
Precip. -- in
6:31 AM 7:22 PM
Waning Gibbous, 53% visible
Pressure 29.99 in
Visibility 9.0 miles
Clouds Clear
Dew Point 72 °F
Humidity 87%
Rainfall 0.00 in
Snow Depth Not available.
UV 0 out of 12
Pollen 10.80 out of 12
Air Quality Not available.
Flu Activity Not available.
METAR KCGI 050153Z AUTO 10003KT 9SM CLR 24/22 A3000 RMK AO2 SLP156 T02440222
Pressure 29.99 in
Visibility 9.0 miles
Clouds Clear
Dew Point 72 °F
Humidity 87%
Rainfall 0.00 in
Snow Depth Not available.
UV 0 out of 12
Pollen 10.80 out of 12
Air Quality Not available.
Flu Activity Not available.
METAR KCGI 050153Z AUTO 10003KT 9SM CLR 24/22 A3000 RMK AO2 SLP156 T02440222

10-Day Weather Forecast

×

Almanac

Astronomy

Sep. 04, 2015 Rise Set
Actual Time
Civil Twilight
Nautical Twilight
Astronomical Twilight
Moon
Length of Visible Light
Length of Day
Tomorrow will be .
, % of the Moon is Illuminated

Today's Extremes

State Highs State Lows

Community

WunderPhotos

Upload Photos

1,852,391 photos uploaded!

WunderBlogs® & News

Nearby

Air Quality

  Air Quality AQ Index Pollutant
Not available.

Snow Depth

Station Depth Elevation

Earthquake Activity

City Distance Mag. Time & Date
Minimum magnitude displayed is 2.5.

Coastal Water Temperatures

Place Temperature

Stations

Nearby Weather Stations

Station Location Temp. Windchill Dew Point Humidity Wind Precip. Elev Updated Type